Time;durP1;ratioP1;P1;durP2;ratioP2;P2;SDS_P1;SDS_P2;PMS_P1;PMS_P2;Temp;Humidity;BMP_temperature;BMP_pressure;BME280_temperature;BME280_humidity;BME280_pressure;Samples;Min_cycle;Max_cycle;Signal;HPM_P1;HPM_P2
2022/08/07 00:02:14;;;;;;;1.53;1.43;;;11.60;21.00;;;;;;5024765;28;20466;-51
2022/08/07 00:04:40;;;;;;;1.93;1.77;;;11.60;99.90;;;;;;5022722;28;20498;-51
2022/08/07 00:07:07;;;;;;;1.97;1.87;;;11.60;20.50;;;;;;5028417;28;20487;-51
2022/08/07 00:09:34;;;;;;;1.43;1.33;;;11.60;93.10;;;;;;5021847;28;20469;-51
2022/08/07 00:12:00;;;;;;;3.00;2.47;;;11.60;26.70;;;;;;5028254;28;21118;-51
2022/08/07 00:14:30;;;;;;;5.60;1.90;;;11.50;22.00;;;;;;5029816;28;20563;-53
2022/08/07 00:16:56;;;;;;;1.50;1.37;;;11.50;22.10;;;;;;5024406;28;20491;-52
2022/08/07 00:19:23;;;;;;;2.43;1.77;;;11.50;21.70;;;;;;5026378;28;20525;-51
2022/08/07 00:21:49;;;;;;;2.40;1.80;;;11.50;84.20;;;;;;5031801;28;20470;-52
2022/08/07 00:24:16;;;;;;;1.43;1.43;;;11.40;74.50;;;;;;5024899;28;21051;-52
2022/08/07 00:26:43;;;;;;;2.30;1.50;;;11.20;99.90;;;;;;5024059;28;20514;-51
2022/08/07 00:29:09;;;;;;;2.10;1.90;;;11.20;99.90;;;;;;5028772;28;20498;-51
2022/08/07 00:31:37;;;;;;;1.70;1.60;;;11.20;99.90;;;;;;5027156;28;20490;-51
2022/08/07 00:34:04;;;;;;;1.53;1.47;;;11.20;99.90;;;;;;5029222;28;21044;-51
2022/08/07 00:36:30;;;;;;;1.67;1.50;;;11.20;99.90;;;;;;5035465;28;20607;-54
2022/08/07 00:38:57;;;;;;;1.83;1.70;;;11.20;99.90;;;;;;5027396;28;20515;-51
2022/08/07 00:41:27;;;;;;;2.27;1.77;;;11.10;99.90;;;;;;5028217;28;20639;-52
2022/08/07 00:43:53;;;;;;;1.43;1.43;;;11.10;99.90;;;;;;5022304;28;20489;-51
2022/08/07 00:46:20;;;;;;;1.50;1.40;;;11.10;99.90;;;;;;5026465;28;20518;-52
2022/08/07 00:48:48;;;;;;;1.97;1.87;;;11.10;99.90;;;;;;5023577;28;20479;-51
2022/08/07 00:51:15;;;;;;;1.60;1.50;;;11.10;99.90;;;;;;5020338;28;20536;-52
2022/08/07 00:53:42;;;;;;;4.90;1.57;;;11.10;99.90;;;;;;5027450;28;21181;-52
2022/08/07 00:56:11;;;;;;;1.80;1.70;;;11.10;99.90;;;;;;5023748;28;20501;-52
2022/08/07 00:58:41;;;;;;;1.67;1.57;;;11.00;99.90;;;;;;5024478;28;20478;-52
2022/08/07 01:01:07;;;;;;;1.77;1.67;;;10.90;99.90;;;;;;5026053;28;20465;-51
2022/08/07 01:03:34;;;;;;;1.73;1.63;;;10.80;99.90;;;;;;5017884;28;20541;-52
2022/08/07 01:06:02;;;;;;;1.60;1.50;;;10.90;99.90;;;;;;5033919;28;21057;-52
2022/08/07 01:08:29;;;;;;;1.63;1.53;;;10.80;99.90;;;;;;5024029;28;20482;-51
2022/08/07 01:10:56;;;;;;;3.40;1.77;;;10.90;99.90;;;;;;5023480;28;20498;-51
2022/08/07 01:13:23;;;;;;;3.10;1.60;;;10.90;99.90;;;;;;5026123;28;20505;-52
2022/08/07 01:15:50;;;;;;;1.50;1.50;;;10.90;99.90;;;;;;5026865;28;20602;-51
2022/08/07 01:18:17;;;;;;;1.83;1.73;;;10.70;99.90;;;;;;5028014;28;20572;-52
2022/08/07 01:20:48;;;;;;;2.23;2.00;;;10.60;99.90;;;;;;5024434;28;20980;-51
2022/08/07 01:23:16;;;;;;;2.53;2.33;;;10.60;99.90;;;;;;5025289;28;20483;-51
2022/08/07 01:25:43;;;;;;;3.03;1.67;;;10.60;99.90;;;;;;5026996;28;20506;-51
2022/08/07 01:28:10;;;;;;;1.87;1.70;;;10.60;99.90;;;;;;5024675;28;20458;-51
2022/08/07 01:30:38;;;;;;;2.90;1.70;;;10.60;99.90;;;;;;5020482;28;20463;-52
2022/08/07 01:33:05;;;;;;;1.87;1.77;;;10.60;99.90;;;;;;5025394;28;20556;-51
2022/08/07 01:35:32;;;;;;;1.73;1.63;;;10.50;99.90;;;;;;5024823;28;20465;-51
2022/08/07 01:37:59;;;;;;;1.93;1.77;;;10.50;99.90;;;;;;5025710;28;20516;-51
2022/08/07 01:40:28;;;;;;;2.03;1.73;;;10.50;99.90;;;;;;5026852;28;20467;-52
2022/08/07 01:42:54;;;;;;;3.90;1.90;;;10.50;99.90;;;;;;5022014;28;20513;-52
2022/08/07 01:45:21;;;;;;;1.60;1.50;;;10.40;99.90;;;;;;5021226;28;20524;-51
2022/08/07 01:47:48;;;;;;;2.27;1.63;;;10.40;99.90;;;;;;5028036;28;21894;-52
2022/08/07 01:50:15;;;;;;;1.27;1.27;;;10.50;99.90;;;;;;5030582;28;20473;-52
2022/08/07 01:52:43;;;;;;;2.70;2.17;;;10.50;99.90;;;;;;5031327;28;20512;-51
2022/08/07 01:55:11;;;;;;;1.77;1.67;;;10.40;99.90;;;;;;5030281;28;20536;-51
2022/08/07 01:57:41;;;;;;;2.20;1.40;;;10.40;99.90;;;;;;5030694;28;21186;-51
2022/08/07 02:00:11;;;;;;;1.93;1.30;;;10.40;99.90;;;;;;5022710;28;20490;-51
2022/08/07 02:02:42;;;;;;;2.03;1.57;;;10.30;99.90;;;;;;5023910;28;20512;-51
2022/08/07 02:05:12;;;;;;;1.40;1.30;;;10.20;99.90;;;;;;5022192;28;20459;-51
2022/08/07 02:07:43;;;;;;;1.50;1.40;;;10.20;99.90;;;;;;5028637;28;20487;-52
2022/08/07 02:10:12;;;;;;;1.47;1.37;;;10.10;99.90;;;;;;5026557;28;20462;-51
2022/08/07 02:12:43;;;;;;;1.50;1.40;;;10.10;99.90;;;;;;5030535;28;20466;-52
2022/08/07 02:15:11;;;;;;;1.17;1.17;;;10.10;99.90;;;;;;5025367;28;20454;-52
2022/08/07 02:17:39;;;;;;;1.57;1.47;;;10.10;99.90;;;;;;5036116;28;20520;-52
2022/08/07 02:20:08;;;;;;;1.67;1.57;;;10.10;99.90;;;;;;5034418;28;20992;-51
2022/08/07 02:22:37;;;;;;;4.20;1.67;;;10.10;99.90;;;;;;5027823;28;20505;-53
2022/08/07 02:25:06;;;;;;;2.83;1.23;;;10.00;99.90;;;;;;5031159;28;21019;-51
2022/08/07 02:27:33;;;;;;;2.97;1.50;;;10.00;99.90;;;;;;5032936;28;20532;-52
2022/08/07 02:30:03;;;;;;;1.50;1.40;;;9.90;99.90;;;;;;5022573;28;20845;-52
2022/08/07 02:32:31;;;;;;;1.80;1.70;;;9.90;99.90;;;;;;5027304;28;20463;-52
2022/08/07 02:34:59;;;;;;;1.53;1.43;;;9.90;99.90;;;;;;5031395;28;20455;-52
2022/08/07 02:37:27;;;;;;;1.50;1.50;;;9.90;99.90;;;;;;5030048;28;20486;-52
2022/08/07 02:39:56;;;;;;;2.70;1.50;;;9.90;99.90;;;;;;5024108;28;20544;-52
2022/08/07 02:42:23;;;;;;;1.93;1.60;;;9.90;99.90;;;;;;5027099;28;20462;-52
2022/08/07 02:44:52;;;;;;;1.43;1.20;;;9.90;99.90;;;;;;5026481;28;21223;-52
2022/08/07 02:47:21;;;;;;;1.83;1.23;;;9.90;99.90;;;;;;5029083;28;20551;-52
2022/08/07 02:49:48;;;;;;;1.67;1.57;;;9.80;99.90;;;;;;5024993;28;20458;-51
2022/08/07 02:52:20;;;;;;;1.50;1.40;;;9.80;99.90;;;;;;5028115;28;20509;-52
2022/08/07 02:54:48;;;;;;;1.33;1.33;;;9.80;99.90;;;;;;5028986;28;20467;-51
2022/08/07 02:57:18;;;;;;;1.17;1.10;;;9.70;99.90;;;;;;5026269;28;20861;-51
2022/08/07 02:59:49;;;;;;;1.70;1.60;;;9.80;99.90;;;;;;5027915;28;20490;-51
2022/08/07 03:02:16;;;;;;;1.50;1.13;;;9.70;99.90;;;;;;5028936;28;20454;-50
2022/08/07 03:04:46;;;;;;;2.17;1.30;;;9.70;99.90;;;;;;5030102;28;20960;-53
2022/08/07 03:07:13;;;;;;;1.20;1.13;;;9.60;99.90;;;;;;5028647;28;20516;-52
2022/08/07 03:09:41;;;;;;;1.83;1.43;;;9.60;99.90;;;;;;5026729;28;20501;-51
2022/08/07 03:12:09;;;;;;;1.53;1.43;;;9.70;99.90;;;;;;5031078;28;20463;-52
2022/08/07 03:14:36;;;;;;;1.63;1.33;;;9.60;99.90;;;;;;5026319;28;20459;-52
2022/08/07 03:17:04;;;;;;;1.63;1.53;;;9.50;99.90;;;;;;5032600;28;20479;-52
2022/08/07 03:19:31;;;;;;;2.10;1.93;;;9.50;99.90;;;;;;5032945;28;20486;-52
2022/08/07 03:22:00;;;;;;;1.73;1.30;;;9.60;99.90;;;;;;5029729;28;20925;-51
2022/08/07 03:24:27;;;;;;;1.27;1.17;;;9.50;99.90;;;;;;5029020;28;20597;-52
2022/08/07 03:26:55;;;;;;;1.20;1.20;;;9.50;99.90;;;;;;5028112;28;20893;-51
2022/08/07 03:29:22;;;;;;;1.30;1.20;;;9.60;99.90;;;;;;5029123;28;20467;-51
2022/08/07 03:31:51;;;;;;;1.63;1.20;;;9.60;99.90;;;;;;5029815;28;20466;-51
2022/08/07 03:34:19;;;;;;;1.30;1.20;;;9.50;99.90;;;;;;5026967;28;20454;-52
2022/08/07 03:36:46;;;;;;;1.07;1.00;;;9.50;99.90;;;;;;5027748;28;20947;-52
2022/08/07 03:39:15;;;;;;;1.00;1.00;;;9.50;99.90;;;;;;5029218;28;20482;-53
2022/08/07 03:41:42;;;;;;;1.30;1.20;;;9.50;99.90;;;;;;5027235;28;20470;-52
2022/08/07 03:44:09;;;;;;;1.80;1.50;;;9.50;99.90;;;;;;5029054;28;20520;-52
2022/08/07 03:46:36;;;;;;;1.90;1.33;;;9.50;99.90;;;;;;5023863;28;20498;-52
2022/08/07 03:49:03;;;;;;;1.50;1.40;;;9.40;99.90;;;;;;5028264;28;20455;-51
2022/08/07 03:51:32;;;;;;;1.63;1.53;;;9.30;99.90;;;;;;5023843;28;20471;-52
2022/08/07 03:53:59;;;;;;;1.73;1.50;;;9.40;99.90;;;;;;5030459;28;20459;-52
2022/08/07 03:56:28;;;;;;;1.40;1.30;;;9.40;99.90;;;;;;5028674;28;20528;-52
2022/08/07 03:58:55;;;;;;;2.67;1.40;;;9.40;99.90;;;;;;5027885;28;20568;-51
2022/08/07 04:01:23;;;;;;;1.30;1.30;;;9.50;99.90;;;;;;5027742;28;20482;-51
2022/08/07 04:03:50;;;;;;;1.00;1.00;;;9.50;99.90;;;;;;5021367;28;20466;-52
2022/08/07 04:06:17;;;;;;;1.23;1.10;;;9.50;99.90;;;;;;5033200;28;20478;-52
2022/08/07 04:08:45;;;;;;;1.33;1.23;;;9.50;99.90;;;;;;5029634;28;20520;-51
2022/08/07 04:11:12;;;;;;;1.33;1.33;;;9.50;99.90;;;;;;5025858;28;20508;-52
2022/08/07 04:13:41;;;;;;;3.90;1.37;;;9.50;99.90;;;;;;5027796;28;20462;-52
2022/08/07 04:16:08;;;;;;;2.70;1.10;;;9.60;99.90;;;;;;5031040;28;22454;-52
2022/08/07 04:18:34;;;;;;;1.33;1.23;;;9.60;99.90;;;;;;5025693;28;20467;-51
2022/08/07 04:21:01;;;;;;;1.70;1.27;;;9.60;99.90;;;;;;5025010;28;20524;-52
2022/08/07 04:23:28;;;;;;;2.20;1.30;;;9.70;99.90;;;;;;5029856;28;20471;-51
2022/08/07 04:25:56;;;;;;;1.33;1.20;;;9.70;99.90;;;;;;5030137;28;20505;-52
2022/08/07 04:28:22;;;;;;;1.30;1.30;;;9.80;99.90;;;;;;5030609;28;20536;-51
2022/08/07 04:30:51;;;;;;;1.90;1.42;;;9.80;99.90;;;;;;5027321;28;20511;-51
2022/08/07 04:33:18;;;;;;;2.57;1.37;;;9.90;99.90;;;;;;5027852;28;20205;-51
2022/08/07 04:35:46;;;;;;;1.77;1.40;;;9.90;99.90;;;;;;5020943;28;20471;-51
2022/08/07 04:38:13;;;;;;;1.40;1.27;;;9.90;99.90;;;;;;5029743;28;20457;-52
2022/08/07 04:40:42;;;;;;;2.70;1.83;;;9.90;99.90;;;;;;5026620;28;20478;-52
2022/08/07 04:43:09;;;;;;;0.90;0.90;;;10.00;99.90;;;;;;5027725;28;20537;-51
2022/08/07 04:45:41;;;;;;;1.47;1.20;;;10.00;99.90;;;;;;5025531;28;20463;-52
2022/08/07 04:48:23;;;;;;;1.53;1.43;;;10.10;99.90;;;;;;5020362;28;20463;-51
2022/08/07 04:50:57;;;;;;;1.40;1.30;;;10.20;99.90;;;;;;5024858;28;20948;-51
2022/08/07 04:53:31;;;;;;;1.50;1.40;;;10.20;99.90;;;;;;5027509;28;20508;-52
2022/08/07 04:56:05;;;;;;;4.53;1.60;;;10.40;99.90;;;;;;5022603;28;20528;-52
2022/08/07 04:58:37;;;;;;;2.40;1.73;;;10.40;99.90;;;;;;5027747;28;20462;-52
2022/08/07 05:01:13;;;;;;;2.43;1.50;;;10.50;99.90;;;;;;5024864;28;20470;-51
2022/08/07 05:03:47;;;;;;;1.47;1.37;;;10.60;99.90;;;;;;5022237;28;20462;-51
2022/08/07 05:06:19;;;;;;;1.53;1.43;;;10.70;99.90;;;;;;5026217;28;20484;-51
2022/08/07 05:08:50;;;;;;;5.97;1.70;;;10.80;99.90;;;;;;5027762;28;20874;-51
2022/08/07 05:11:24;;;;;;;1.87;1.63;;;10.90;99.90;;;;;;5026603;28;20500;-52
2022/08/07 05:13:54;;;;;;;1.73;1.63;;;11.00;99.90;;;;;;5027132;28;20462;-52
2022/08/07 05:16:22;;;;;;;1.37;1.27;;;11.10;99.90;;;;;;5027899;28;20482;-51
2022/08/07 05:18:55;;;;;;;3.73;1.50;;;11.20;99.90;;;;;;5028813;28;20894;-51
2022/08/07 05:21:25;;;;;;;3.60;1.70;;;11.40;99.90;;;;;;5025590;28;20478;-51
2022/08/07 05:23:57;;;;;;;2.23;1.27;;;11.40;99.90;;;;;;5028643;28;20514;-51
2022/08/07 05:26:27;;;;;;;1.47;1.40;;;11.50;99.90;;;;;;5023142;28;20466;-51
2022/08/07 05:28:56;;;;;;;4.27;1.60;;;11.60;99.90;;;;;;5024105;28;20463;-51
2022/08/07 05:31:26;;;;;;;3.73;1.27;;;11.80;99.90;;;;;;5027069;28;20465;-51
2022/08/07 05:33:56;;;;;;;1.67;1.57;;;11.90;99.90;;;;;;5027480;28;20542;-51
2022/08/07 05:36:23;;;;;;;1.50;1.40;;;12.00;99.90;;;;;;5019948;28;20487;-51
2022/08/07 05:38:51;;;;;;;1.43;1.33;;;12.20;99.90;;;;;;5019252;28;20471;-52
2022/08/07 05:41:18;;;;;;;2.60;1.30;;;12.30;99.90;;;;;;5024611;28;20513;-51
2022/08/07 05:43:48;;;;;;;2.60;1.63;;;12.40;99.90;;;;;;5026733;28;20466;-51
2022/08/07 05:46:16;;;;;;;1.60;1.50;;;12.60;99.90;;;;;;5028262;28;20544;-52
2022/08/07 05:48:44;;;;;;;2.00;1.90;;;12.70;99.90;;;;;;5023047;28;20554;-51
2022/08/07 05:51:13;;;;;;;2.20;2.00;;;12.90;99.90;;;;;;5027861;28;20454;-51
2022/08/07 05:53:40;;;;;;;2.30;2.20;;;13.00;99.90;;;;;;5024127;28;20521;-51
2022/08/07 05:56:09;;;;;;;2.40;1.63;;;13.20;99.90;;;;;;5029720;28;20478;-52
2022/08/07 05:58:37;;;;;;;1.70;1.60;;;13.30;99.90;;;;;;5023528;28;20470;-51
2022/08/07 06:01:05;;;;;;;4.30;2.27;;;13.50;99.90;;;;;;5022828;28;20848;-51
2022/08/07 06:03:33;;;;;;;2.53;2.43;;;13.70;99.90;;;;;;5043192;28;20473;-51
2022/08/07 06:06:00;;;;;;;3.40;2.27;;;13.80;99.90;;;;;;5026316;28;20482;-51
2022/08/07 06:08:29;;;;;;;2.57;2.30;;;14.00;99.90;;;;;;5023182;28;20467;-51
2022/08/07 06:10:56;;;;;;;2.23;2.03;;;14.20;20.50;;;;;;5022249;28;20952;-52
2022/08/07 06:13:23;;;;;;;5.80;2.30;;;14.40;31.20;;;;;;5029432;28;20471;-52
2022/08/07 06:15:50;;;;;;;6.60;3.20;;;14.50;36.50;;;;;;5025910;28;20483;-53
2022/08/07 06:18:17;;;;;;;2.77;2.57;;;14.70;48.80;;;;;;5023115;28;20455;-50
2022/08/07 06:20:45;;;;;;;2.43;2.23;;;14.80;54.70;;;;;;5027341;28;20487;-51
2022/08/07 06:23:12;;;;;;;9.97;2.73;;;15.00;66.90;;;;;;5026097;28;20464;-52
2022/08/07 06:25:42;;;;;;;3.80;2.50;;;15.20;72.80;;;;;;5029083;28;20463;-51
2022/08/07 06:28:10;;;;;;;4.90;2.97;;;15.30;76.80;;;;;;5025662;28;20454;-51
2022/08/07 06:30:38;;;;;;;1.87;1.77;;;15.50;82.20;;;;;;5024982;28;20963;-51
2022/08/07 06:33:06;;;;;;;3.53;2.60;;;15.50;90.50;;;;;;5025077;28;20459;-51
2022/08/07 06:35:35;;;;;;;2.47;2.17;;;15.70;92.50;;;;;;5036076;28;20454;-57
2022/08/07 06:38:01;;;;;;;5.60;2.20;;;15.80;95.70;;;;;;5026691;28;20450;-53
2022/08/07 06:40:30;;;;;;;2.40;2.20;;;16.00;99.90;;;;;;5033279;28;20893;-51
2022/08/07 06:42:58;;;;;;;4.90;2.00;;;16.20;99.90;;;;;;5030713;28;20463;-51
2022/08/07 06:45:26;;;;;;;3.10;1.90;;;16.30;99.90;;;;;;5033012;28;20513;-51
2022/08/07 06:47:53;;;;;;;2.03;1.80;;;16.50;99.90;;;;;;5031121;28;20461;-50
2022/08/07 06:50:19;;;;;;;2.40;1.73;;;16.70;99.90;;;;;;5031279;28;20608;-52
2022/08/07 06:52:52;;;;;;;3.67;2.50;;;16.90;99.90;;;;;;5031059;28;20468;-51
2022/08/07 06:55:22;;;;;;;2.37;2.17;;;17.00;99.90;;;;;;5033350;28;20451;-51
2022/08/07 06:57:50;;;;;;;2.30;2.10;;;17.20;99.90;;;;;;5033082;28;20459;-52
2022/08/07 07:00:19;;;;;;;4.00;2.10;;;17.30;99.90;;;;;;5030397;28;20479;-52
2022/08/07 07:02:47;;;;;;;2.27;2.07;;;17.30;99.90;;;;;;5030878;28;20525;-52
2022/08/07 07:05:13;;;;;;;2.97;2.20;;;17.40;99.90;;;;;;5031476;28;21000;-51
2022/08/07 07:07:40;;;;;;;5.33;2.10;;;17.50;99.90;;;;;;5031358;28;20478;-52
2022/08/07 07:10:08;;;;;;;2.30;2.10;;;17.70;99.90;;;;;;5025086;28;20505;-51
2022/08/07 07:12:40;;;;;;;4.00;1.93;;;17.70;99.90;;;;;;5025269;28;20503;-52
2022/08/07 07:15:13;;;;;;;1.60;1.50;;;17.90;99.90;;;;;;5025914;28;20450;-51
2022/08/07 07:17:47;;;;;;;1.93;1.80;;;18.00;99.90;;;;;;5030926;28;20532;-51
2022/08/07 07:20:18;;;;;;;2.83;1.97;;;18.00;99.90;;;;;;5027406;28;20982;-51
2022/08/07 07:22:46;;;;;;;8.13;2.17;;;18.10;99.90;;;;;;5029159;28;20964;-52
2022/08/07 07:25:15;;;;;;;5.30;2.30;;;18.20;99.90;;;;;;5025766;28;20502;-51
2022/08/07 07:27:51;;;;;;;4.60;2.77;;;18.30;99.90;;;;;;5029109;28;20540;-51
2022/08/07 07:30:21;;;;;;;2.73;2.30;;;18.40;99.90;;;;;;5026257;28;20471;-51
2022/08/07 07:32:52;;;;;;;2.17;2.07;;;18.50;99.90;;;;;;5025206;28;20474;-52
2022/08/07 07:35:22;;;;;;;3.50;2.20;;;18.60;99.90;;;;;;5028679;28;20462;-52
2022/08/07 07:37:50;;;;;;;4.23;2.10;;;18.60;99.90;;;;;;5027291;28;20516;-52
2022/08/07 07:40:19;;;;;;;5.37;2.40;;;18.70;99.90;;;;;;5024123;28;20536;-52
2022/08/07 07:42:50;;;;;;;2.00;1.90;;;18.80;99.90;;;;;;5029235;28;20467;-52
2022/08/07 07:45:18;;;;;;;4.90;2.70;;;18.90;99.90;;;;;;5030749;28;20923;-51
2022/08/07 07:47:45;;;;;;;4.90;2.03;;;19.00;99.90;;;;;;5030011;28;20491;-51
2022/08/07 07:50:17;;;;;;;8.40;2.37;;;19.00;99.90;;;;;;5025861;28;20455;-51
2022/08/07 07:52:45;;;;;;;3.13;1.93;;;19.00;99.90;;;;;;5024719;28;20454;-51
2022/08/07 07:55:12;;;;;;;2.13;1.90;;;19.00;99.90;;;;;;5039170;28;20511;-52
2022/08/07 07:57:40;;;;;;;5.93;1.93;;;19.10;99.90;;;;;;5034103;28;20486;-51
2022/08/07 08:00:09;;;;;;;3.17;1.67;;;19.20;99.90;;;;;;5032077;28;20459;-59
2022/08/07 08:02:40;;;;;;;1.93;1.83;;;19.40;99.90;;;;;;5023587;28;20504;-52
2022/08/07 08:05:09;;;;;;;4.83;2.10;;;19.40;99.90;;;;;;5030858;28;20826;-52
2022/08/07 08:07:38;;;;;;;3.10;1.97;;;19.40;99.90;;;;;;5024789;28;20471;-52
2022/08/07 08:10:07;;;;;;;3.43;1.97;;;19.50;99.90;;;;;;5024523;28;20520;-52
2022/08/07 08:12:34;;;;;;;2.30;2.10;;;19.50;99.90;;;;;;5026983;28;20467;-51
2022/08/07 08:15:01;;;;;;;2.70;1.90;;;19.60;99.90;;;;;;5023275;28;20509;-52
2022/08/07 08:17:29;;;;;;;2.97;1.77;;;19.80;99.90;;;;;;5032012;28;20487;-51
2022/08/07 08:20:05;;;;;;;3.83;1.57;;;20.00;99.90;;;;;;5029467;28;20462;-51
2022/08/07 08:28:06;;;;;;;1.77;1.67;;;20.20;99.90;;;;;;5025722;28;20532;-51
2022/08/07 08:30:34;;;;;;;1.93;1.40;;;20.20;99.90;;;;;;5030381;28;20470;-52
2022/08/07 08:33:05;;;;;;;2.50;2.00;;;20.30;99.90;;;;;;5030384;28;20475;-51
2022/08/07 08:35:34;;;;;;;3.87;1.77;;;20.30;99.90;;;;;;5018235;28;20478;-52
2022/08/07 08:38:02;;;;;;;3.00;1.97;;;20.30;99.90;;;;;;5025457;28;20467;-52
2022/08/07 08:40:35;;;;;;;3.27;1.80;;;20.50;99.90;;;;;;5022287;28;20636;-51
2022/08/07 08:43:14;;;;;;;1.90;1.80;;;20.60;99.90;;;;;;5024267;28;20452;-51
2022/08/07 08:45:46;;;;;;;4.10;1.40;;;20.50;99.90;;;;;;5025513;28;20821;-51
2022/08/07 08:48:25;;;;;;;2.07;1.87;;;20.30;99.90;;;;;;5022046;28;20880;-51
2022/08/07 08:50:56;;;;;;;2.43;1.83;;;20.50;99.90;;;;;;5027275;28;20509;-51
2022/08/07 08:53:31;;;;;;;3.53;1.90;;;20.60;99.90;;;;;;5025323;28;20913;-51
2022/08/07 08:56:02;;;;;;;3.60;2.17;;;20.70;99.90;;;;;;5028275;28;20485;-51
2022/08/07 08:58:36;;;;;;;2.07;1.97;;;20.80;99.90;;;;;;5029609;28;20470;-51
2022/08/07 09:01:13;;;;;;;3.67;2.10;;;20.70;99.90;;;;;;5026555;28;20546;-51
2022/08/07 09:03:48;;;;;;;2.07;1.87;;;20.80;99.90;;;;;;5021661;28;20508;-51
2022/08/07 09:06:26;;;;;;;2.60;2.40;;;21.00;99.90;;;;;;5031145;28;20472;-51
2022/08/07 09:09:01;;;;;;;2.30;2.07;;;21.20;99.90;;;;;;5027337;28;20451;-51
2022/08/07 09:11:39;;;;;;;2.20;2.00;;;21.80;99.90;;;;;;5025558;28;20508;-52
2022/08/07 09:14:12;;;;;;;4.23;2.23;;;22.20;99.90;;;;;;5025270;28;20459;-51
2022/08/07 09:16:54;;;;;;;2.20;2.10;;;22.40;99.90;;;;;;5025168;28;20483;-51
2022/08/07 09:19:28;;;;;;;2.03;1.93;;;22.30;99.90;;;;;;5026025;28;20459;-51
2022/08/07 09:22:08;;;;;;;4.70;1.70;;;22.60;99.90;;;;;;5021838;28;20548;-52
2022/08/07 09:24:47;;;;;;;3.03;1.70;;;22.70;99.90;;;;;;5022677;28;20462;-52
2022/08/07 09:30:59;;;;;;;11.17;2.63;;;22.50;99.90;;;;;;5019957;28;20434;-51
2022/08/07 09:33:40;;;;;;;4.67;2.00;;;22.40;99.90;;;;;;5026810;28;20549;-51
2022/08/07 09:36:29;;;;;;;2.20;2.07;;;22.00;99.90;;;;;;5032805;28;20958;-53
2022/08/07 09:42:33;;;;;;;2.83;2.63;;;21.30;99.90;;;;;;5019345;28;20490;-51
2022/08/07 09:45:10;;;;;;;10.53;2.00;;;20.90;99.90;;;;;;5022458;28;20557;-51
2022/08/07 09:47:50;;;;;;;2.60;2.40;;;20.70;99.90;;;;;;5045206;23;20588;-52
2022/08/07 09:50:25;;;;;;;4.60;2.67;;;20.60;99.90;;;;;;5040964;28;20540;-51
2022/08/07 09:52:59;;;;;;;2.00;1.80;;;20.60;99.90;;;;;;5045146;28;20477;-51
2022/08/07 09:55:37;;;;;;;1.80;1.70;;;20.50;99.90;;;;;;5046795;28;20560;-50
2022/08/07 09:58:25;;;;;;;3.13;1.73;;;20.60;99.90;;;;;;5044815;28;21066;-52
2022/08/07 10:01:02;;;;;;;4.67;1.83;;;20.70;99.90;;;;;;5042336;28;20485;-52
2022/08/07 10:03:47;;;;;;;2.20;2.10;;;20.90;99.90;;;;;;5043670;28;20486;-51
2022/08/07 10:06:31;;;;;;;2.07;1.90;;;21.10;99.90;;;;;;5048117;28;20536;-52
2022/08/07 10:09:29;;;;;;;2.53;2.33;;;21.50;99.90;;;;;;5045030;28;20461;-52
2022/08/07 10:12:06;;;;;;;3.40;2.23;;;21.90;99.90;;;;;;5040939;28;20466;-52
2022/08/07 10:14:59;;;;;;;2.37;2.20;;;21.70;99.90;;;;;;5051729;28;20553;-52
2022/08/07 10:17:56;;;;;;;2.27;2.07;;;21.50;99.90;;;;;;5057033;28;21093;-52
2022/08/07 10:20:32;;;;;;;2.70;2.50;;;21.30;99.90;;;;;;5056098;28;20547;-51
2022/08/07 10:23:19;;;;;;;3.00;2.50;;;21.30;99.90;;;;;;5047368;28;20549;-51
2022/08/07 10:26:01;;;;;;;6.37;3.40;;;21.20;99.90;;;;;;5051211;28;20549;-52
2022/08/07 10:28:53;;;;;;;3.20;2.63;;;21.10;99.90;;;;;;5054812;28;20564;-51
2022/08/07 10:31:53;;;;;;;5.90;4.10;;;21.00;99.90;;;;;;5046627;28;20834;-51
2022/08/07 10:34:36;;;;;;;5.93;3.90;;;21.00;99.90;;;;;;5052576;28;20515;-52
2022/08/07 10:37:18;;;;;;;6.03;3.50;;;21.20;99.90;;;;;;5041610;28;20903;-51
2022/08/07 10:39:58;;;;;;;3.00;2.30;;;21.30;99.90;;;;;;5050153;28;21022;-53
2022/08/07 10:42:32;;;;;;;5.80;2.60;;;21.50;99.90;;;;;;5048038;28;20486;-52
2022/08/07 10:45:05;;;;;;;2.10;2.00;;;21.90;99.90;;;;;;5052520;28;20487;-52
2022/08/07 10:47:44;;;;;;;2.43;1.90;;;21.90;99.90;;;;;;5049197;28;20951;-51
2022/08/07 10:50:17;;;;;;;5.63;2.03;;;21.80;99.90;;;;;;5048108;28;20454;-52
2022/08/07 10:52:55;;;;;;;3.07;2.90;;;21.60;99.90;;;;;;5049983;28;21033;-51
2022/08/07 10:55:26;;;;;;;2.80;2.53;;;21.60;99.90;;;;;;5053077;28;20886;-52
2022/08/07 10:58:04;;;;;;;2.00;1.70;;;21.80;99.90;;;;;;5045353;28;22410;-51
2022/08/07 11:00:36;;;;;;;4.40;2.30;;;22.10;99.90;;;;;;5049714;28;20461;-51
2022/08/07 11:03:07;;;;;;;2.17;1.97;;;22.50;99.90;;;;;;5050964;28;21058;-51
2022/08/07 11:05:45;;;;;;;4.40;2.00;;;22.70;99.90;;;;;;5048680;28;20555;-51
2022/08/07 11:08:19;;;;;;;2.30;2.10;;;22.80;99.90;;;;;;5053917;28;20572;-51
2022/08/07 11:10:52;;;;;;;3.17;1.60;;;22.90;99.90;;;;;;5050428;28;20937;-53
2022/08/07 11:13:27;;;;;;;2.10;1.70;;;23.10;99.90;;;;;;5050874;28;20625;-51
2022/08/07 11:15:56;;;;;;;2.77;1.90;;;23.20;99.90;;;;;;5044193;28;20548;-51
2022/08/07 11:18:29;;;;;;;2.60;2.17;;;23.20;99.90;;;;;;5049609;28;20584;-50
2022/08/07 11:21:08;;;;;;;3.33;1.97;;;23.20;99.90;;;;;;5042772;28;21017;-52
2022/08/07 11:23:47;;;;;;;3.10;2.03;;;23.20;99.90;;;;;;5047184;28;20461;-52
2022/08/07 11:26:20;;;;;;;2.70;1.40;;;23.20;99.90;;;;;;5047511;28;20458;-51
2022/08/07 11:28:52;;;;;;;2.10;1.90;;;23.30;99.90;;;;;;5049095;28;20564;-51
2022/08/07 11:31:26;;;;;;;1.77;1.60;;;23.30;99.90;;;;;;5050946;28;20462;-51
2022/08/07 11:33:59;;;;;;;2.00;1.90;;;23.30;99.90;;;;;;5048170;28;20549;-52
2022/08/07 11:36:43;;;;;;;1.80;1.70;;;23.50;99.90;;;;;;5045740;28;20461;-51
2022/08/07 11:39:23;;;;;;;1.63;1.53;;;23.60;99.90;;;;;;5045292;28;20516;-51
2022/08/07 11:41:59;;;;;;;1.67;1.57;;;23.60;99.90;;;;;;5049441;28;20523;-51
2022/08/07 11:44:36;;;;;;;2.83;1.40;;;23.40;99.90;;;;;;5052216;28;20541;-52
2022/08/07 11:47:17;;;;;;;3.17;1.57;;;23.40;99.90;;;;;;5046236;28;20568;-52
2022/08/07 11:50:02;;;;;;;1.73;1.53;;;23.50;99.90;;;;;;5052963;28;21057;-52
2022/08/07 11:53:13;;;;;;;1.50;1.40;;;23.20;99.90;;;;;;5049967;28;20460;-51
2022/08/07 11:55:57;;;;;;;2.50;1.37;;;23.20;99.90;;;;;;5046850;28;20474;-51
2022/08/07 11:58:32;;;;;;;3.40;1.60;;;23.50;99.90;;;;;;5049809;28;21003;-52
2022/08/07 12:01:14;;;;;;;2.00;1.80;;;23.60;99.90;;;;;;5046983;28;20554;-51
2022/08/07 12:03:57;;;;;;;2.30;1.67;;;23.60;99.90;;;;;;5046061;28;20988;-50
2022/08/07 12:06:38;;;;;;;1.10;1.10;;;23.60;99.90;;;;;;5042290;28;20454;-51
2022/08/07 12:09:11;;;;;;;4.40;1.63;;;23.70;99.90;;;;;;5047548;28;20493;-51
2022/08/07 12:11:47;;;;;;;2.00;1.70;;;23.60;99.90;;;;;;5049860;28;20549;-51
2022/08/07 12:14:18;;;;;;;3.07;1.60;;;23.70;99.90;;;;;;5050738;28;21046;-51
2022/08/07 12:16:48;;;;;;;1.77;1.67;;;23.90;99.90;;;;;;5050828;28;20564;-52
2022/08/07 12:19:25;;;;;;;4.40;1.87;;;24.00;99.90;;;;;;5053206;28;21123;-51
2022/08/07 12:21:58;;;;;;;1.60;1.50;;;23.80;99.90;;;;;;5051332;28;20937;-51
2022/08/07 12:24:32;;;;;;;2.30;1.43;;;23.60;99.90;;;;;;5052027;28;20488;-52
2022/08/07 12:27:05;;;;;;;2.30;1.43;;;23.50;99.90;;;;;;5042754;28;20571;-52
2022/08/07 12:29:37;;;;;;;1.83;1.13;;;23.50;99.90;;;;;;5051763;28;20510;-52
2022/08/07 12:32:12;;;;;;;2.57;1.63;;;23.80;99.90;;;;;;5049626;28;20541;-52
2022/08/07 12:34:40;;;;;;;1.43;1.30;;;24.00;99.90;;;;;;5049625;28;20839;-52
2022/08/07 12:37:08;;;;;;;1.73;1.53;;;24.10;99.90;;;;;;5044971;28;20564;-53
2022/08/07 12:39:36;;;;;;;1.40;1.30;;;24.30;99.90;;;;;;5050427;28;20552;-52
2022/08/07 12:42:06;;;;;;;2.10;1.63;;;24.00;99.90;;;;;;5050753;28;20908;-52
2022/08/07 12:44:36;;;;;;;1.37;1.27;;;24.30;99.90;;;;;;5046594;28;20602;-52
2022/08/07 12:47:12;;;;;;;1.90;1.50;;;24.40;99.90;;;;;;5049131;28;20493;-51
2022/08/07 12:49:49;;;;;;;2.77;1.57;;;24.60;99.90;;;;;;5050582;28;22699;-51
2022/08/07 12:52:19;;;;;;;2.80;1.53;;;24.70;99.90;;;;;;5045829;28;20461;-53
2022/08/07 12:54:54;;;;;;;1.70;1.20;;;24.80;99.90;;;;;;5051386;28;20462;-52
2022/08/07 12:57:27;;;;;;;1.40;1.40;;;24.80;99.90;;;;;;5049361;28;20568;-52
2022/08/07 12:59:55;;;;;;;1.80;1.43;;;24.90;99.90;;;;;;5042472;28;20480;-51
2022/08/07 13:02:40;;;;;;;2.40;1.63;;;25.00;99.90;;;;;;5042037;28;20493;-52
2022/08/07 13:05:18;;;;;;;1.40;1.30;;;25.00;99.90;;;;;;5037403;28;20541;-52
2022/08/07 13:08:05;;;;;;;2.33;1.63;;;25.10;99.90;;;;;;5049003;28;20560;-52
2022/08/07 13:10:41;;;;;;;3.10;1.77;;;25.20;99.90;;;;;;5050746;28;20465;-51
2022/08/07 13:13:28;;;;;;;1.93;1.67;;;25.20;99.90;;;;;;5047003;28;20541;-52
2022/08/07 13:16:00;;;;;;;5.73;1.50;;;25.30;99.90;;;;;;5048947;28;20481;-52
2022/08/07 13:18:37;;;;;;;2.10;1.67;;;25.40;99.90;;;;;;5046313;28;21173;-52
2022/08/07 13:21:11;;;;;;;3.53;1.70;;;25.40;99.90;;;;;;5047910;28;20457;-52
2022/08/07 13:23:44;;;;;;;2.90;1.97;;;25.60;99.90;;;;;;5048543;28;20565;-53